sensor_id;sensor_type;location;lat;lon;timestamp;P1;durP1;ratioP1;P2;durP2;ratioP2
81150;SDS011;70629;-26.026;27.976;2023-07-20T00:00:14;35.15;;;19.95;;
81150;SDS011;70629;-26.026;27.976;2023-07-20T00:01:50;46.05;;;21.83;;
81150;SDS011;70629;-26.026;27.976;2023-07-20T00:03:25;38.38;;;20.55;;
81150;SDS011;70629;-26.026;27.976;2023-07-20T00:06:34;43.33;;;19.60;;
81150;SDS011;70629;-26.026;27.976;2023-07-20T00:08:09;33.95;;;19.05;;
81150;SDS011;70629;-26.026;27.976;2023-07-20T00:09:44;36.50;;;18.88;;
81150;SDS011;70629;-26.026;27.976;2023-07-20T00:11:19;31.23;;;18.77;;
81150;SDS011;70629;-26.026;27.976;2023-07-20T00:12:54;31.83;;;17.95;;
81150;SDS011;70629;-26.026;27.976;2023-07-20T00:14:29;29.45;;;16.90;;
81150;SDS011;70629;-26.026;27.976;2023-07-20T00:16:05;32.58;;;18.55;;
81150;SDS011;70629;-26.026;27.976;2023-07-20T00:17:40;38.58;;;18.45;;
81150;SDS011;70629;-26.026;27.976;2023-07-20T00:19:16;34.40;;;19.23;;
81150;SDS011;70629;-26.026;27.976;2023-07-20T00:20:50;35.47;;;17.77;;
81150;SDS011;70629;-26.026;27.976;2023-07-20T00:22:25;32.88;;;16.92;;
81150;SDS011;70629;-26.026;27.976;2023-07-20T00:24:00;29.77;;;17.45;;
81150;SDS011;70629;-26.026;27.976;2023-07-20T00:25:35;31.08;;;18.05;;
81150;SDS011;70629;-26.026;27.976;2023-07-20T00:27:10;34.05;;;18.45;;
81150;SDS011;70629;-26.026;27.976;2023-07-20T00:28:45;33.25;;;18.20;;
81150;SDS011;70629;-26.026;27.976;2023-07-20T00:30:20;27.13;;;17.33;;
81150;SDS011;70629;-26.026;27.976;2023-07-20T00:31:55;34.83;;;18.25;;
81150;SDS011;70629;-26.026;27.976;2023-07-20T00:33:30;28.88;;;15.70;;
81150;SDS011;70629;-26.026;27.976;2023-07-20T00:35:05;25.23;;;14.65;;
81150;SDS011;70629;-26.026;27.976;2023-07-20T00:36:41;26.83;;;13.32;;
81150;SDS011;70629;-26.026;27.976;2023-07-20T00:38:16;26.58;;;16.38;;
81150;SDS011;70629;-26.026;27.976;2023-07-20T00:39:52;24.92;;;14.70;;
81150;SDS011;70629;-26.026;27.976;2023-07-20T00:41:28;22.13;;;13.75;;
81150;SDS011;70629;-26.026;27.976;2023-07-20T00:43:07;26.60;;;13.25;;
81150;SDS011;70629;-26.026;27.976;2023-07-20T00:44:43;19.65;;;11.00;;
81150;SDS011;70629;-26.026;27.976;2023-07-20T00:47:53;20.48;;;9.93;;
81150;SDS011;70629;-26.026;27.976;2023-07-20T00:49:28;18.45;;;9.10;;
81150;SDS011;70629;-26.026;27.976;2023-07-20T00:51:03;27.77;;;14.32;;
81150;SDS011;70629;-26.026;27.976;2023-07-20T00:52:38;23.90;;;14.75;;
81150;SDS011;70629;-26.026;27.976;2023-07-20T00:54:14;19.33;;;14.73;;
81150;SDS011;70629;-26.026;27.976;2023-07-20T00:55:50;30.65;;;16.05;;
81150;SDS011;70629;-26.026;27.976;2023-07-20T00:57:25;31.52;;;16.42;;
81150;SDS011;70629;-26.026;27.976;2023-07-20T00:59:00;23.17;;;15.20;;
81150;SDS011;70629;-26.026;27.976;2023-07-20T01:02:10;30.30;;;13.88;;
81150;SDS011;70629;-26.026;27.976;2023-07-20T01:05:20;27.13;;;14.38;;
81150;SDS011;70629;-26.026;27.976;2023-07-20T01:13:42;37.38;;;19.30;;
81150;SDS011;70629;-26.026;27.976;2023-07-20T01:15:18;34.58;;;17.73;;
81150;SDS011;70629;-26.026;27.976;2023-07-20T01:16:53;32.67;;;17.40;;
81150;SDS011;70629;-26.026;27.976;2023-07-20T01:18:28;31.92;;;18.52;;
81150;SDS011;70629;-26.026;27.976;2023-07-20T01:20:04;34.80;;;18.98;;
81150;SDS011;70629;-26.026;27.976;2023-07-20T01:22:02;37.60;;;20.05;;
81150;SDS011;70629;-26.026;27.976;2023-07-20T01:23:50;43.60;;;18.65;;
81150;SDS011;70629;-26.026;27.976;2023-07-20T01:26:39;29.27;;;15.73;;
81150;SDS011;70629;-26.026;27.976;2023-07-20T01:31:52;26.20;;;13.75;;
81150;SDS011;70629;-26.026;27.976;2023-07-20T01:33:30;21.58;;;13.50;;
81150;SDS011;70629;-26.026;27.976;2023-07-20T01:35:07;27.08;;;15.30;;
81150;SDS011;70629;-26.026;27.976;2023-07-20T01:36:44;24.42;;;13.93;;
81150;SDS011;70629;-26.026;27.976;2023-07-20T01:38:20;26.42;;;14.23;;
81150;SDS011;70629;-26.026;27.976;2023-07-20T01:39:57;25.05;;;12.95;;
81150;SDS011;70629;-26.026;27.976;2023-07-20T01:41:33;23.55;;;12.85;;
81150;SDS011;70629;-26.026;27.976;2023-07-20T01:43:09;19.38;;;11.88;;
81150;SDS011;70629;-26.026;27.976;2023-07-20T01:44:44;22.27;;;11.57;;
81150;SDS011;70629;-26.026;27.976;2023-07-20T01:47:54;16.98;;;9.15;;
81150;SDS011;70629;-26.026;27.976;2023-07-20T01:51:03;17.80;;;9.40;;
81150;SDS011;70629;-26.026;27.976;2023-07-20T01:52:39;16.35;;;8.80;;
81150;SDS011;70629;-26.026;27.976;2023-07-20T01:55:48;13.15;;;8.40;;
81150;SDS011;70629;-26.026;27.976;2023-07-20T01:57:23;13.43;;;8.15;;
81150;SDS011;70629;-26.026;27.976;2023-07-20T01:58:58;15.40;;;8.88;;
81150;SDS011;70629;-26.026;27.976;2023-07-20T02:02:07;12.35;;;8.23;;
81150;SDS011;70629;-26.026;27.976;2023-07-20T02:05:17;15.57;;;8.00;;
81150;SDS011;70629;-26.026;27.976;2023-07-20T02:06:52;15.88;;;8.05;;
81150;SDS011;70629;-26.026;27.976;2023-07-20T02:08:27;14.45;;;7.53;;
81150;SDS011;70629;-26.026;27.976;2023-07-20T02:10:02;14.15;;;7.75;;
81150;SDS011;70629;-26.026;27.976;2023-07-20T02:11:37;17.90;;;8.48;;
81150;SDS011;70629;-26.026;27.976;2023-07-20T02:14:47;15.70;;;7.63;;
81150;SDS011;70629;-26.026;27.976;2023-07-20T02:17:57;14.30;;;7.55;;
81150;SDS011;70629;-26.026;27.976;2023-07-20T02:19:32;13.77;;;7.63;;
81150;SDS011;70629;-26.026;27.976;2023-07-20T02:21:07;11.27;;;7.95;;
81150;SDS011;70629;-26.026;27.976;2023-07-20T02:24:16;15.45;;;8.35;;
81150;SDS011;70629;-26.026;27.976;2023-07-20T02:27:25;15.27;;;8.07;;
81150;SDS011;70629;-26.026;27.976;2023-07-20T02:29:00;15.77;;;8.07;;
81150;SDS011;70629;-26.026;27.976;2023-07-20T02:30:38;12.77;;;7.85;;
81150;SDS011;70629;-26.026;27.976;2023-07-20T02:33:48;12.98;;;7.97;;
81150;SDS011;70629;-26.026;27.976;2023-07-20T02:35:23;11.27;;;7.93;;
81150;SDS011;70629;-26.026;27.976;2023-07-20T02:36:58;12.25;;;7.97;;
81150;SDS011;70629;-26.026;27.976;2023-07-20T02:38:34;13.75;;;8.00;;
81150;SDS011;70629;-26.026;27.976;2023-07-20T02:41:45;17.20;;;7.47;;
81150;SDS011;70629;-26.026;27.976;2023-07-20T02:43:20;13.70;;;7.88;;
81150;SDS011;70629;-26.026;27.976;2023-07-20T02:46:29;13.60;;;7.90;;
81150;SDS011;70629;-26.026;27.976;2023-07-20T02:48:05;15.43;;;8.50;;
81150;SDS011;70629;-26.026;27.976;2023-07-20T02:49:42;15.63;;;9.35;;
81150;SDS011;70629;-26.026;27.976;2023-07-20T02:51:17;15.98;;;7.75;;
81150;SDS011;70629;-26.026;27.976;2023-07-20T02:54:28;15.85;;;8.05;;
81150;SDS011;70629;-26.026;27.976;2023-07-20T02:56:04;14.80;;;8.52;;
81150;SDS011;70629;-26.026;27.976;2023-07-20T02:59:13;14.68;;;8.60;;
81150;SDS011;70629;-26.026;27.976;2023-07-20T03:02:23;15.88;;;8.48;;
81150;SDS011;70629;-26.026;27.976;2023-07-20T03:03:58;17.98;;;9.20;;
81150;SDS011;70629;-26.026;27.976;2023-07-20T03:05:33;23.92;;;8.95;;
81150;SDS011;70629;-26.026;27.976;2023-07-20T03:07:08;12.77;;;7.47;;
81150;SDS011;70629;-26.026;27.976;2023-07-20T03:08:43;18.75;;;9.65;;
81150;SDS011;70629;-26.026;27.976;2023-07-20T03:10:25;18.20;;;8.63;;
81150;SDS011;70629;-26.026;27.976;2023-07-20T03:12:01;15.02;;;8.77;;
81150;SDS011;70629;-26.026;27.976;2023-07-20T03:13:38;15.88;;;9.32;;
81150;SDS011;70629;-26.026;27.976;2023-07-20T03:15:13;13.90;;;7.72;;
81150;SDS011;70629;-26.026;27.976;2023-07-20T03:16:48;18.73;;;9.52;;
81150;SDS011;70629;-26.026;27.976;2023-07-20T03:18:23;16.60;;;10.05;;
81150;SDS011;70629;-26.026;27.976;2023-07-20T03:21:34;12.95;;;8.70;;
81150;SDS011;70629;-26.026;27.976;2023-07-20T03:24:43;15.25;;;10.40;;
81150;SDS011;70629;-26.026;27.976;2023-07-20T03:26:18;15.00;;;9.80;;
81150;SDS011;70629;-26.026;27.976;2023-07-20T03:27:54;16.38;;;9.27;;
81150;SDS011;70629;-26.026;27.976;2023-07-20T03:29:31;16.90;;;9.55;;
81150;SDS011;70629;-26.026;27.976;2023-07-20T03:31:07;17.73;;;9.77;;
81150;SDS011;70629;-26.026;27.976;2023-07-20T03:32:42;13.95;;;10.00;;
81150;SDS011;70629;-26.026;27.976;2023-07-20T03:35:51;17.05;;;10.27;;
81150;SDS011;70629;-26.026;27.976;2023-07-20T03:37:26;18.25;;;10.60;;
81150;SDS011;70629;-26.026;27.976;2023-07-20T03:40:37;17.30;;;9.65;;
81150;SDS011;70629;-26.026;27.976;2023-07-20T03:43:46;18.08;;;9.52;;
81150;SDS011;70629;-26.026;27.976;2023-07-20T03:45:21;16.20;;;10.57;;
81150;SDS011;70629;-26.026;27.976;2023-07-20T03:46:58;19.17;;;12.07;;
81150;SDS011;70629;-26.026;27.976;2023-07-20T03:48:33;20.33;;;11.45;;
81150;SDS011;70629;-26.026;27.976;2023-07-20T03:50:08;23.02;;;11.07;;
81150;SDS011;70629;-26.026;27.976;2023-07-20T03:51:44;16.55;;;11.02;;
81150;SDS011;70629;-26.026;27.976;2023-07-20T03:53:19;17.20;;;10.93;;
81150;SDS011;70629;-26.026;27.976;2023-07-20T03:54:55;17.90;;;11.35;;
81150;SDS011;70629;-26.026;27.976;2023-07-20T03:58:08;18.30;;;11.40;;
81150;SDS011;70629;-26.026;27.976;2023-07-20T03:59:46;16.33;;;10.80;;
81150;SDS011;70629;-26.026;27.976;2023-07-20T04:01:22;17.65;;;10.98;;
81150;SDS011;70629;-26.026;27.976;2023-07-20T04:04:33;18.58;;;11.60;;
81150;SDS011;70629;-26.026;27.976;2023-07-20T04:06:08;18.73;;;12.55;;
81150;SDS011;70629;-26.026;27.976;2023-07-20T04:07:43;20.33;;;11.88;;
81150;SDS011;70629;-26.026;27.976;2023-07-20T04:11:06;19.63;;;11.10;;
81150;SDS011;70629;-26.026;27.976;2023-07-20T04:12:41;18.45;;;12.65;;
81150;SDS011;70629;-26.026;27.976;2023-07-20T04:14:17;20.75;;;13.00;;
81150;SDS011;70629;-26.026;27.976;2023-07-20T04:15:52;20.25;;;13.38;;
81150;SDS011;70629;-26.026;27.976;2023-07-20T04:19:02;19.95;;;11.90;;
81150;SDS011;70629;-26.026;27.976;2023-07-20T04:20:37;21.20;;;11.43;;
81150;SDS011;70629;-26.026;27.976;2023-07-20T04:24:07;21.55;;;13.23;;
81150;SDS011;70629;-26.026;27.976;2023-07-20T04:25:43;23.20;;;12.90;;
81150;SDS011;70629;-26.026;27.976;2023-07-20T04:27:18;28.02;;;13.32;;
81150;SDS011;70629;-26.026;27.976;2023-07-20T04:28:53;21.02;;;13.02;;
81150;SDS011;70629;-26.026;27.976;2023-07-20T04:30:28;22.80;;;12.20;;
81150;SDS011;70629;-26.026;27.976;2023-07-20T04:32:03;25.30;;;12.75;;
81150;SDS011;70629;-26.026;27.976;2023-07-20T04:33:39;21.05;;;13.40;;
81150;SDS011;70629;-26.026;27.976;2023-07-20T04:35:17;23.63;;;14.02;;
81150;SDS011;70629;-26.026;27.976;2023-07-20T04:37:13;20.58;;;13.50;;
81150;SDS011;70629;-26.026;27.976;2023-07-20T04:38:47;22.33;;;13.82;;
81150;SDS011;70629;-26.026;27.976;2023-07-20T04:40:22;22.75;;;14.20;;
81150;SDS011;70629;-26.026;27.976;2023-07-20T04:43:32;22.00;;;13.55;;
81150;SDS011;70629;-26.026;27.976;2023-07-20T04:45:07;24.83;;;14.32;;
81150;SDS011;70629;-26.026;27.976;2023-07-20T04:46:42;25.35;;;15.85;;
81150;SDS011;70629;-26.026;27.976;2023-07-20T04:48:19;27.70;;;14.63;;
81150;SDS011;70629;-26.026;27.976;2023-07-20T04:49:55;29.73;;;15.23;;
81150;SDS011;70629;-26.026;27.976;2023-07-20T04:51:30;27.23;;;16.10;;
81150;SDS011;70629;-26.026;27.976;2023-07-20T04:53:05;23.50;;;15.50;;
81150;SDS011;70629;-26.026;27.976;2023-07-20T04:54:40;24.17;;;16.02;;
81150;SDS011;70629;-26.026;27.976;2023-07-20T04:56:15;27.25;;;16.35;;
81150;SDS011;70629;-26.026;27.976;2023-07-20T04:57:50;25.17;;;18.05;;
81150;SDS011;70629;-26.026;27.976;2023-07-20T05:01:00;23.58;;;16.33;;
81150;SDS011;70629;-26.026;27.976;2023-07-20T05:02:35;28.83;;;16.58;;
81150;SDS011;70629;-26.026;27.976;2023-07-20T05:04:10;28.95;;;18.10;;
81150;SDS011;70629;-26.026;27.976;2023-07-20T05:05:51;29.42;;;17.08;;
81150;SDS011;70629;-26.026;27.976;2023-07-20T05:09:00;25.33;;;15.75;;
81150;SDS011;70629;-26.026;27.976;2023-07-20T05:12:09;27.52;;;16.20;;
81150;SDS011;70629;-26.026;27.976;2023-07-20T05:13:46;23.70;;;16.48;;
81150;SDS011;70629;-26.026;27.976;2023-07-20T05:15:21;28.52;;;17.23;;
81150;SDS011;70629;-26.026;27.976;2023-07-20T05:16:57;30.35;;;17.85;;
81150;SDS011;70629;-26.026;27.976;2023-07-20T05:18:32;38.20;;;18.90;;
81150;SDS011;70629;-26.026;27.976;2023-07-20T05:20:07;32.10;;;18.92;;
81150;SDS011;70629;-26.026;27.976;2023-07-20T05:21:46;31.27;;;17.98;;
81150;SDS011;70629;-26.026;27.976;2023-07-20T05:23:21;31.88;;;18.30;;
81150;SDS011;70629;-26.026;27.976;2023-07-20T05:24:56;29.13;;;17.90;;
81150;SDS011;70629;-26.026;27.976;2023-07-20T05:26:31;26.20;;;17.42;;
81150;SDS011;70629;-26.026;27.976;2023-07-20T05:28:07;30.88;;;19.35;;
81150;SDS011;70629;-26.026;27.976;2023-07-20T05:29:45;34.20;;;19.10;;
81150;SDS011;70629;-26.026;27.976;2023-07-20T05:31:21;32.80;;;19.60;;
81150;SDS011;70629;-26.026;27.976;2023-07-20T05:32:56;32.95;;;18.73;;
81150;SDS011;70629;-26.026;27.976;2023-07-20T05:34:31;27.63;;;19.10;;
81150;SDS011;70629;-26.026;27.976;2023-07-20T05:37:40;30.98;;;19.25;;
81150;SDS011;70629;-26.026;27.976;2023-07-20T05:40:52;30.60;;;19.40;;
81150;SDS011;70629;-26.026;27.976;2023-07-20T05:42:38;34.92;;;20.10;;
81150;SDS011;70629;-26.026;27.976;2023-07-20T05:44:13;33.10;;;18.98;;
81150;SDS011;70629;-26.026;27.976;2023-07-20T05:45:48;29.90;;;19.27;;
81150;SDS011;70629;-26.026;27.976;2023-07-20T05:47:24;33.17;;;19.55;;
81150;SDS011;70629;-26.026;27.976;2023-07-20T05:48:59;30.98;;;20.27;;
81150;SDS011;70629;-26.026;27.976;2023-07-20T05:50:34;28.88;;;18.95;;
81150;SDS011;70629;-26.026;27.976;2023-07-20T05:53:43;34.45;;;22.63;;
81150;SDS011;70629;-26.026;27.976;2023-07-20T05:56:53;44.45;;;22.13;;
81150;SDS011;70629;-26.026;27.976;2023-07-20T05:58:28;41.97;;;24.05;;
81150;SDS011;70629;-26.026;27.976;2023-07-20T06:00:03;45.63;;;25.98;;
81150;SDS011;70629;-26.026;27.976;2023-07-20T06:01:38;45.85;;;25.42;;
81150;SDS011;70629;-26.026;27.976;2023-07-20T06:04:48;45.03;;;25.55;;
81150;SDS011;70629;-26.026;27.976;2023-07-20T06:06:23;42.17;;;26.70;;
81150;SDS011;70629;-26.026;27.976;2023-07-20T06:07:59;42.30;;;26.83;;
81150;SDS011;70629;-26.026;27.976;2023-07-20T06:09:35;48.88;;;28.45;;
81150;SDS011;70629;-26.026;27.976;2023-07-20T06:11:10;40.55;;;28.58;;
81150;SDS011;70629;-26.026;27.976;2023-07-20T06:12:45;48.10;;;27.83;;
81150;SDS011;70629;-26.026;27.976;2023-07-20T06:14:20;42.55;;;28.77;;
81150;SDS011;70629;-26.026;27.976;2023-07-20T06:17:30;39.75;;;26.48;;
81150;SDS011;70629;-26.026;27.976;2023-07-20T06:19:05;41.75;;;26.90;;
81150;SDS011;70629;-26.026;27.976;2023-07-20T06:20:40;42.58;;;28.80;;
81150;SDS011;70629;-26.026;27.976;2023-07-20T06:22:15;45.78;;;29.33;;
81150;SDS011;70629;-26.026;27.976;2023-07-20T06:25:25;41.63;;;26.42;;
81150;SDS011;70629;-26.026;27.976;2023-07-20T06:27:00;49.63;;;28.38;;
81150;SDS011;70629;-26.026;27.976;2023-07-20T06:30:10;45.70;;;27.75;;
81150;SDS011;70629;-26.026;27.976;2023-07-20T06:31:46;44.63;;;28.48;;
81150;SDS011;70629;-26.026;27.976;2023-07-20T06:33:22;48.58;;;27.27;;
81150;SDS011;70629;-26.026;27.976;2023-07-20T06:34:57;44.17;;;29.73;;
81150;SDS011;70629;-26.026;27.976;2023-07-20T06:36:32;45.85;;;28.60;;
81150;SDS011;70629;-26.026;27.976;2023-07-20T06:38:07;42.40;;;27.85;;
81150;SDS011;70629;-26.026;27.976;2023-07-20T06:39:45;47.42;;;31.73;;
81150;SDS011;70629;-26.026;27.976;2023-07-20T06:41:23;41.92;;;27.75;;
81150;SDS011;70629;-26.026;27.976;2023-07-20T06:43:01;42.47;;;30.42;;
81150;SDS011;70629;-26.026;27.976;2023-07-20T06:44:39;43.33;;;27.20;;
81150;SDS011;70629;-26.026;27.976;2023-07-20T06:46:14;41.80;;;30.30;;
81150;SDS011;70629;-26.026;27.976;2023-07-20T06:47:49;45.58;;;30.88;;
81150;SDS011;70629;-26.026;27.976;2023-07-20T06:49:27;46.55;;;30.75;;
81150;SDS011;70629;-26.026;27.976;2023-07-20T06:51:03;40.05;;;26.35;;
81150;SDS011;70629;-26.026;27.976;2023-07-20T06:54:13;37.60;;;24.60;;
81150;SDS011;70629;-26.026;27.976;2023-07-20T06:57:23;35.40;;;24.05;;
81150;SDS011;70629;-26.026;27.976;2023-07-20T06:58:58;38.20;;;25.55;;
81150;SDS011;70629;-26.026;27.976;2023-07-20T07:00:33;36.35;;;24.75;;
81150;SDS011;70629;-26.026;27.976;2023-07-20T07:02:08;39.17;;;25.60;;
81150;SDS011;70629;-26.026;27.976;2023-07-20T07:03:47;36.58;;;24.23;;
81150;SDS011;70629;-26.026;27.976;2023-07-20T07:05:26;38.47;;;23.88;;
81150;SDS011;70629;-26.026;27.976;2023-07-20T07:07:08;35.70;;;24.25;;
81150;SDS011;70629;-26.026;27.976;2023-07-20T07:08:43;33.75;;;23.30;;
81150;SDS011;70629;-26.026;27.976;2023-07-20T07:10:18;38.92;;;25.40;;
81150;SDS011;70629;-26.026;27.976;2023-07-20T07:11:53;36.30;;;23.60;;
81150;SDS011;70629;-26.026;27.976;2023-07-20T07:13:28;37.47;;;25.52;;
81150;SDS011;70629;-26.026;27.976;2023-07-20T07:15:05;34.50;;;24.73;;
81150;SDS011;70629;-26.026;27.976;2023-07-20T07:16:40;35.00;;;24.40;;
81150;SDS011;70629;-26.026;27.976;2023-07-20T07:18:15;34.40;;;22.40;;
81150;SDS011;70629;-26.026;27.976;2023-07-20T07:19:54;34.28;;;22.35;;
81150;SDS011;70629;-26.026;27.976;2023-07-20T07:21:31;35.25;;;23.75;;
81150;SDS011;70629;-26.026;27.976;2023-07-20T07:23:06;34.13;;;23.65;;
81150;SDS011;70629;-26.026;27.976;2023-07-20T07:26:15;30.13;;;20.45;;
81150;SDS011;70629;-26.026;27.976;2023-07-20T07:27:52;32.33;;;22.48;;
81150;SDS011;70629;-26.026;27.976;2023-07-20T07:29:27;36.60;;;24.33;;
81150;SDS011;70629;-26.026;27.976;2023-07-20T07:31:05;36.40;;;22.00;;
81150;SDS011;70629;-26.026;27.976;2023-07-20T07:32:41;36.33;;;22.23;;
81150;SDS011;70629;-26.026;27.976;2023-07-20T07:34:16;36.28;;;24.25;;
81150;SDS011;70629;-26.026;27.976;2023-07-20T07:37:26;36.97;;;20.55;;
81150;SDS011;70629;-26.026;27.976;2023-07-20T07:39:03;32.05;;;20.73;;
81150;SDS011;70629;-26.026;27.976;2023-07-20T07:40:41;34.17;;;22.08;;
81150;SDS011;70629;-26.026;27.976;2023-07-20T07:42:16;32.53;;;20.27;;
81150;SDS011;70629;-26.026;27.976;2023-07-20T07:43:56;32.72;;;21.33;;
81150;SDS011;70629;-26.026;27.976;2023-07-20T07:45:31;32.88;;;20.35;;
81150;SDS011;70629;-26.026;27.976;2023-07-20T07:47:10;27.63;;;17.80;;
81150;SDS011;70629;-26.026;27.976;2023-07-20T07:48:46;22.23;;;15.48;;
81150;SDS011;70629;-26.026;27.976;2023-07-20T07:50:21;29.50;;;16.00;;
81150;SDS011;70629;-26.026;27.976;2023-07-20T07:51:56;23.83;;;16.42;;
81150;SDS011;70629;-26.026;27.976;2023-07-20T07:53:32;27.00;;;18.65;;
81150;SDS011;70629;-26.026;27.976;2023-07-20T07:55:07;29.13;;;17.88;;
81150;SDS011;70629;-26.026;27.976;2023-07-20T07:56:42;24.45;;;16.58;;
81150;SDS011;70629;-26.026;27.976;2023-07-20T07:58:18;25.77;;;17.08;;
81150;SDS011;70629;-26.026;27.976;2023-07-20T07:59:53;25.90;;;16.77;;
81150;SDS011;70629;-26.026;27.976;2023-07-20T08:01:28;23.55;;;16.60;;
81150;SDS011;70629;-26.026;27.976;2023-07-20T08:03:05;40.10;;;21.50;;
81150;SDS011;70629;-26.026;27.976;2023-07-20T08:04:42;24.60;;;16.25;;
81150;SDS011;70629;-26.026;27.976;2023-07-20T08:06:17;29.58;;;16.50;;
81150;SDS011;70629;-26.026;27.976;2023-07-20T08:07:52;27.23;;;16.98;;
81150;SDS011;70629;-26.026;27.976;2023-07-20T08:09:27;24.60;;;17.65;;
81150;SDS011;70629;-26.026;27.976;2023-07-20T08:11:02;27.25;;;17.38;;
81150;SDS011;70629;-26.026;27.976;2023-07-20T08:13:00;38.40;;;21.92;;
81150;SDS011;70629;-26.026;27.976;2023-07-20T08:14:35;26.40;;;17.50;;
81150;SDS011;70629;-26.026;27.976;2023-07-20T08:16:10;46.50;;;24.38;;
81150;SDS011;70629;-26.026;27.976;2023-07-20T08:17:45;57.42;;;30.00;;
81150;SDS011;70629;-26.026;27.976;2023-07-20T08:19:20;30.98;;;16.42;;
81150;SDS011;70629;-26.026;27.976;2023-07-20T08:21:18;21.98;;;16.15;;
81150;SDS011;70629;-26.026;27.976;2023-07-20T08:22:54;40.17;;;19.23;;
81150;SDS011;70629;-26.026;27.976;2023-07-20T08:24:29;56.22;;;26.13;;
81150;SDS011;70629;-26.026;27.976;2023-07-20T08:26:04;21.52;;;15.63;;
81150;SDS011;70629;-26.026;27.976;2023-07-20T08:27:39;23.98;;;15.00;;
81150;SDS011;70629;-26.026;27.976;2023-07-20T08:29:15;20.30;;;14.65;;
81150;SDS011;70629;-26.026;27.976;2023-07-20T08:30:50;26.83;;;15.45;;
81150;SDS011;70629;-26.026;27.976;2023-07-20T08:32:25;23.95;;;17.33;;
81150;SDS011;70629;-26.026;27.976;2023-07-20T08:34:00;20.88;;;15.18;;
81150;SDS011;70629;-26.026;27.976;2023-07-20T08:35:48;29.60;;;17.27;;
81150;SDS011;70629;-26.026;27.976;2023-07-20T08:37:23;24.40;;;15.30;;
81150;SDS011;70629;-26.026;27.976;2023-07-20T08:38:58;23.92;;;16.00;;
81150;SDS011;70629;-26.026;27.976;2023-07-20T08:40:34;20.15;;;14.75;;
81150;SDS011;70629;-26.026;27.976;2023-07-20T08:42:18;26.40;;;16.23;;
81150;SDS011;70629;-26.026;27.976;2023-07-20T08:43:53;26.70;;;16.10;;
81150;SDS011;70629;-26.026;27.976;2023-07-20T08:45:32;27.45;;;17.20;;
81150;SDS011;70629;-26.026;27.976;2023-07-20T08:47:08;22.88;;;16.38;;
81150;SDS011;70629;-26.026;27.976;2023-07-20T08:48:45;26.55;;;16.23;;
81150;SDS011;70629;-26.026;27.976;2023-07-20T08:50:21;20.33;;;15.38;;
81150;SDS011;70629;-26.026;27.976;2023-07-20T08:51:57;23.25;;;15.73;;
81150;SDS011;70629;-26.026;27.976;2023-07-20T08:53:33;25.50;;;15.93;;
81150;SDS011;70629;-26.026;27.976;2023-07-20T08:55:08;24.70;;;16.33;;
81150;SDS011;70629;-26.026;27.976;2023-07-20T08:56:44;25.85;;;15.43;;
81150;SDS011;70629;-26.026;27.976;2023-07-20T08:58:20;25.17;;;15.65;;
81150;SDS011;70629;-26.026;27.976;2023-07-20T09:00:00;25.95;;;14.95;;
81150;SDS011;70629;-26.026;27.976;2023-07-20T09:01:41;20.05;;;14.57;;
81150;SDS011;70629;-26.026;27.976;2023-07-20T09:03:18;20.00;;;14.52;;
81150;SDS011;70629;-26.026;27.976;2023-07-20T09:04:53;21.55;;;15.13;;
81150;SDS011;70629;-26.026;27.976;2023-07-20T09:06:28;22.67;;;15.82;;
81150;SDS011;70629;-26.026;27.976;2023-07-20T09:08:04;25.23;;;15.98;;
81150;SDS011;70629;-26.026;27.976;2023-07-20T09:09:39;20.83;;;14.38;;
81150;SDS011;70629;-26.026;27.976;2023-07-20T09:11:17;24.92;;;14.20;;
81150;SDS011;70629;-26.026;27.976;2023-07-20T09:12:52;19.70;;;13.57;;
81150;SDS011;70629;-26.026;27.976;2023-07-20T09:14:27;22.20;;;14.20;;
81150;SDS011;70629;-26.026;27.976;2023-07-20T09:16:05;23.02;;;13.05;;
81150;SDS011;70629;-26.026;27.976;2023-07-20T09:17:45;22.30;;;12.80;;
81150;SDS011;70629;-26.026;27.976;2023-07-20T09:21:03;23.77;;;13.82;;
81150;SDS011;70629;-26.026;27.976;2023-07-20T09:22:40;23.60;;;14.65;;
81150;SDS011;70629;-26.026;27.976;2023-07-20T09:24:19;20.23;;;13.50;;
81150;SDS011;70629;-26.026;27.976;2023-07-20T09:25:56;25.75;;;13.15;;
81150;SDS011;70629;-26.026;27.976;2023-07-20T09:27:35;18.48;;;12.75;;
81150;SDS011;70629;-26.026;27.976;2023-07-20T09:29:12;21.05;;;13.20;;
81150;SDS011;70629;-26.026;27.976;2023-07-20T09:30:48;16.15;;;11.40;;
81150;SDS011;70629;-26.026;27.976;2023-07-20T09:32:26;18.33;;;12.02;;
81150;SDS011;70629;-26.026;27.976;2023-07-20T09:34:05;19.80;;;13.85;;
81150;SDS011;70629;-26.026;27.976;2023-07-20T09:35:40;18.88;;;12.43;;
81150;SDS011;70629;-26.026;27.976;2023-07-20T09:37:27;18.80;;;11.65;;
81150;SDS011;70629;-26.026;27.976;2023-07-20T09:39:02;16.63;;;10.95;;
81150;SDS011;70629;-26.026;27.976;2023-07-20T09:40:39;17.80;;;13.32;;
81150;SDS011;70629;-26.026;27.976;2023-07-20T09:42:17;16.90;;;12.55;;
81150;SDS011;70629;-26.026;27.976;2023-07-20T09:43:55;19.42;;;12.20;;
81150;SDS011;70629;-26.026;27.976;2023-07-20T09:45:33;20.30;;;12.40;;
81150;SDS011;70629;-26.026;27.976;2023-07-20T09:47:12;21.77;;;11.60;;
81150;SDS011;70629;-26.026;27.976;2023-07-20T09:48:53;19.05;;;11.65;;
81150;SDS011;70629;-26.026;27.976;2023-07-20T09:50:31;17.73;;;12.60;;
81150;SDS011;70629;-26.026;27.976;2023-07-20T09:52:08;18.48;;;12.52;;
81150;SDS011;70629;-26.026;27.976;2023-07-20T09:53:44;18.35;;;12.68;;
81150;SDS011;70629;-26.026;27.976;2023-07-20T09:55:19;19.33;;;12.75;;
81150;SDS011;70629;-26.026;27.976;2023-07-20T09:56:55;14.07;;;10.80;;
81150;SDS011;70629;-26.026;27.976;2023-07-20T09:58:31;19.73;;;12.65;;
81150;SDS011;70629;-26.026;27.976;2023-07-20T10:00:08;17.88;;;12.25;;
81150;SDS011;70629;-26.026;27.976;2023-07-20T10:01:49;17.35;;;11.15;;
81150;SDS011;70629;-26.026;27.976;2023-07-20T10:03:32;17.88;;;11.70;;
81150;SDS011;70629;-26.026;27.976;2023-07-20T10:05:11;18.05;;;10.73;;
81150;SDS011;70629;-26.026;27.976;2023-07-20T10:06:50;15.70;;;11.13;;
81150;SDS011;70629;-26.026;27.976;2023-07-20T10:08:29;17.40;;;11.32;;
81150;SDS011;70629;-26.026;27.976;2023-07-20T10:10:09;19.08;;;12.77;;
81150;SDS011;70629;-26.026;27.976;2023-07-20T10:11:45;14.90;;;11.38;;
81150;SDS011;70629;-26.026;27.976;2023-07-20T10:13:43;14.75;;;11.20;;
81150;SDS011;70629;-26.026;27.976;2023-07-20T10:15:23;17.60;;;12.07;;
81150;SDS011;70629;-26.026;27.976;2023-07-20T10:17:02;16.15;;;11.10;;
81150;SDS011;70629;-26.026;27.976;2023-07-20T10:18:47;19.38;;;12.93;;
81150;SDS011;70629;-26.026;27.976;2023-07-20T10:20:47;16.00;;;10.35;;
81150;SDS011;70629;-26.026;27.976;2023-07-20T10:22:27;17.42;;;11.35;;
81150;SDS011;70629;-26.026;27.976;2023-07-20T10:24:14;16.52;;;10.98;;
81150;SDS011;70629;-26.026;27.976;2023-07-20T10:25:50;17.13;;;10.68;;
81150;SDS011;70629;-26.026;27.976;2023-07-20T10:27:26;15.65;;;10.82;;
81150;SDS011;70629;-26.026;27.976;2023-07-20T10:29:02;11.82;;;9.05;;
81150;SDS011;70629;-26.026;27.976;2023-07-20T10:30:37;18.15;;;10.57;;
81150;SDS011;70629;-26.026;27.976;2023-07-20T10:32:14;16.55;;;10.60;;
81150;SDS011;70629;-26.026;27.976;2023-07-20T10:33:49;15.02;;;10.88;;